02NY weather

Hansen Heliport
Durhamville, New York, United States

Public forecast

Using degrees Fahrenheit for public forecast. Weather courtesy of forecast.io.

Closest aviation weather report (METAR) to Hansen Heliport

Closest report is Griffiss International Airport, 12.5 nm (23.1 km) ENE. Retrieved 2019/12/14 12:12 UTC (30 minutes ago):

KRME 141212Z 35003KT 1SM -RA BR FEW002 OVC039 02/02 A2959 RMK AO2 RAB00 P0001 T00170017

Closest aviation forecast (TAF) to Hansen Heliport

Closest forecast is Griffiss International Airport, 12.5 nm (23.1 km) ENE. Retrieved 2019/12/14 12:51 UTC (0 seconds ago):

TAF KRME 141148Z 1412/1512 10005KT 2SM -RA BR OVC015 FM141300 09008KT 2SM BR OVC007 FM141800 15004KT 4SM -RA BR OVC007 FM150000 27010G20KT 2SM -SN OVC007